Time;durP1;ratioP1;P1;durP2;ratioP2;P2;SDS_P1;SDS_P2;PMS_P1;PMS_P2;Temp;Humidity;BMP_temperature;BMP_pressure;BME280_temperature;BME280_humidity;BME280_pressure;Samples;Min_cycle;Max_cycle;Signal;HPM_P1;HPM_P2
2023/11/05 00:00:30;;;;;;;31.17;20.38;;;307.30;2304.00;;;;;;5044018;28;20084;-68
2023/11/05 00:02:55;;;;;;;10.48;7.25;;;307.30;2304.00;;;;;;5049034;28;20071;-65
2023/11/05 00:05:21;;;;;;;10.38;6.80;;;307.30;2304.00;;;;;;5048103;28;20025;-64
2023/11/05 00:07:47;;;;;;;7.35;4.38;;;307.30;2304.00;;;;;;5031328;28;20060;-64
2023/11/05 00:10:12;;;;;;;5.57;3.15;;;307.40;2304.00;;;;;;5031050;28;20388;-63
2023/11/05 00:12:39;;;;;;;7.07;4.70;;;307.60;2304.00;;;;;;5031568;28;20036;-64
2023/11/05 00:15:06;;;;;;;14.43;7.25;;;307.60;2304.00;;;;;;5025811;28;20036;-64
2023/11/05 00:17:33;;;;;;;6.13;3.15;;;307.60;2304.00;;;;;;5026332;28;20048;-65
2023/11/05 00:19:59;;;;;;;10.27;4.90;;;307.70;2304.00;;;;;;5037732;28;20034;-62
2023/11/05 00:22:25;;;;;;;4.75;1.80;;;307.80;2304.00;;;;;;5045424;28;20043;-64
2023/11/05 00:24:50;;;;;;;3.28;1.55;;;307.90;2304.00;;;;;;5033349;28;20497;-64
2023/11/05 00:27:16;;;;;;;4.68;1.65;;;332.80;2329.60;;;;;;5030579;28;20022;-63
2023/11/05 00:29:42;;;;;;;3.65;1.85;;;332.90;2329.60;;;;;;5030404;28;20368;-63
2023/11/05 00:32:08;;;;;;;2.53;1.25;;;333.00;2329.60;;;;;;5030718;28;20120;-63
2023/11/05 00:34:34;;;;;;;2.10;1.27;;;333.10;2329.60;;;;;;5029986;28;21321;-63
2023/11/05 00:37:00;;;;;;;4.05;2.22;;;333.20;2329.60;;;;;;5039809;28;20021;-63
2023/11/05 00:39:25;;;;;;;2.58;1.05;;;333.30;2329.60;;;;;;5036674;28;20383;-63
2023/11/05 00:41:52;;;;;;;3.75;1.40;;;333.40;2329.60;;;;;;5039813;28;20018;-63
2023/11/05 00:44:17;;;;;;;4.95;1.38;;;333.40;2329.60;;;;;;5033730;28;20025;-63
2023/11/05 00:46:43;;;;;;;2.55;1.50;;;333.60;2329.60;;;;;;5032135;28;20036;-64
2023/11/05 00:49:10;;;;;;;2.30;1.58;;;333.70;2329.60;;;;;;5034312;28;20436;-65
2023/11/05 00:51:36;;;;;;;3.28;1.55;;;358.40;2329.60;;;;;;5043479;28;20025;-63
2023/11/05 00:54:01;;;;;;;2.88;1.55;;;358.50;2329.60;;;;;;5041580;28;20506;-63
2023/11/05 00:56:27;;;;;;;5.13;2.08;;;358.60;2329.60;;;;;;5039501;28;20024;-63
2023/11/05 00:58:53;;;;;;;4.68;2.00;;;358.60;2329.60;;;;;;5039587;28;20029;-63
2023/11/05 01:01:19;;;;;;;6.72;2.70;;;358.70;2329.60;;;;;;5040296;28;20047;-63
2023/11/05 01:03:45;;;;;;;6.78;3.35;;;358.70;2329.60;;;;;;5039974;28;20037;-64
2023/11/05 01:06:11;;;;;;;14.48;7.68;;;358.60;2329.60;;;;;;5041158;28;20025;-66
2023/11/05 01:08:36;;;;;;;15.38;7.65;;;358.60;2329.60;;;;;;5040828;28;20033;-61
2023/11/05 01:11:02;;;;;;;11.50;6.50;;;358.60;2329.60;;;;;;5041700;28;20363;-64
2023/11/05 01:13:28;;;;;;;14.40;5.95;;;358.50;2329.60;;;;;;5040714;28;20045;-64
2023/11/05 01:15:53;;;;;;;10.07;5.63;;;358.40;2329.60;;;;;;5042182;28;20100;-64
2023/11/05 01:18:19;;;;;;;10.52;5.15;;;333.70;2329.60;;;;;;5013344;28;20034;-64
2023/11/05 01:20:45;;;;;;;16.17;8.23;;;333.70;2329.60;;;;;;5028932;28;20037;-64
2023/11/05 01:23:11;;;;;;;10.93;5.72;;;333.60;2329.60;;;;;;5042979;28;20430;-64
2023/11/05 01:25:36;;;;;;;11.10;5.95;;;333.60;2329.60;;;;;;5030866;28;20034;-64
2023/11/05 01:28:02;;;;;;;5.15;3.00;;;333.60;2329.60;;;;;;5034431;28;20021;-64
2023/11/05 01:30:28;;;;;;;10.63;9.60;;;333.60;2329.60;;;;;;5043603;28;20029;-64
2023/11/05 01:32:53;;;;;;;9.15;3.65;;;333.60;2329.60;;;;;;5048222;28;20052;-64
2023/11/05 01:35:19;;;;;;;6.95;2.80;;;333.70;2329.60;;;;;;5045911;28;20075;-64
2023/11/05 01:37:45;;;;;;;8.32;2.88;;;358.40;2329.60;;;;;;5035125;28;20029;-63
2023/11/05 01:40:11;;;;;;;6.38;2.70;;;358.40;2329.60;;;;;;5045298;28;20033;-64
2023/11/05 01:42:37;;;;;;;6.10;2.38;;;358.40;2329.60;;;;;;5033364;28;20022;-66
2023/11/05 01:45:03;;;;;;;3.78;1.60;;;358.60;2329.60;;;;;;5032757;28;20048;-65
2023/11/05 01:47:29;;;;;;;4.13;1.65;;;358.80;2329.60;;;;;;5034359;28;20032;-64
2023/11/05 01:49:55;;;;;;;2.83;1.40;;;358.90;2329.60;;;;;;5042589;28;20378;-64
2023/11/05 01:52:22;;;;;;;2.63;1.55;;;359.00;2329.60;;;;;;5039907;28;20017;-64
2023/11/05 01:54:48;;;;;;;4.78;2.20;;;359.00;2329.60;;;;;;5033981;28;20061;-64
2023/11/05 01:57:14;;;;;;;4.85;2.33;;;359.00;2329.60;;;;;;5023232;28;20455;-65
2023/11/05 01:59:40;;;;;;;7.97;4.88;;;359.10;2329.60;;;;;;5043002;28;20123;-64
2023/11/05 02:02:07;;;;;;;6.63;3.05;;;359.10;2329.60;;;;;;5035598;28;20430;-63
2023/11/05 02:04:34;;;;;;;4.40;2.47;;;359.20;2329.60;;;;;;5033049;28;20040;-63
2023/11/05 02:06:59;;;;;;;3.38;1.48;;;359.20;2329.60;;;;;;5033982;28;20091;-63
2023/11/05 02:09:25;;;;;;;8.70;3.28;;;359.30;2329.60;;;;;;5031972;28;20467;-64
2023/11/05 02:11:51;;;;;;;6.13;3.70;;;384.00;2329.60;;;;;;5033658;28;20029;-66
2023/11/05 02:14:17;;;;;;;7.38;2.95;;;384.00;2329.60;;;;;;5033114;28;20037;-64
2023/11/05 02:16:42;;;;;;;6.88;2.63;;;384.10;2329.60;;;;;;5034778;28;20280;-64
2023/11/05 02:19:08;;;;;;;4.38;1.88;;;384.00;2329.60;;;;;;5033867;28;20030;-63
2023/11/05 02:21:49;;;;;;;3.78;1.33;;;384.10;2329.60;;;;;;5037898;28;20041;-64
2023/11/05 02:24:15;;;;;;;5.35;1.40;;;384.10;2329.60;;;;;;5040290;28;20091;-64
2023/11/05 02:26:41;;;;;;;1.88;1.17;;;384.20;2329.60;;;;;;5032340;28;20387;-65
2023/11/05 02:29:07;;;;;;;3.92;1.30;;;384.30;2329.60;;;;;;5032338;28;20033;-62
2023/11/05 02:31:32;;;;;;;3.38;1.40;;;384.30;2329.60;;;;;;5020475;28;20029;-66
2023/11/05 02:33:58;;;;;;;2.80;1.23;;;384.30;2329.60;;;;;;5025214;28;20034;-64
2023/11/05 02:36:25;;;;;;;7.75;1.50;;;384.30;2329.60;;;;;;5032207;28;20015;-65
2023/11/05 02:38:51;;;;;;;4.18;1.80;;;384.30;2329.60;;;;;;5031659;28;20052;-65
2023/11/05 02:41:17;;;;;;;3.72;1.80;;;384.30;2329.60;;;;;;5048702;28;20017;-64
2023/11/05 02:43:43;;;;;;;2.55;1.20;;;384.30;2329.60;;;;;;5048045;28;20119;-64
2023/11/05 02:46:08;;;;;;;5.05;1.58;;;384.30;2329.60;;;;;;5047709;28;20024;-64
2023/11/05 02:48:34;;;;;;;6.57;1.63;;;384.30;2329.60;;;;;;5049045;28;20028;-62
2023/11/05 02:51:00;;;;;;;4.72;1.92;;;384.40;2329.60;;;;;;5047862;28;20375;-63
2023/11/05 02:53:26;;;;;;;1.50;0.75;;;384.40;2329.60;;;;;;5048451;28;20029;-64
2023/11/05 02:55:52;;;;;;;4.78;1.23;;;384.40;2329.60;;;;;;5047648;28;20025;-65
2023/11/05 02:58:18;;;;;;;5.70;1.42;;;384.60;2329.60;;;;;;5048661;28;20090;-63
2023/11/05 03:00:44;;;;;;;24.98;10.13;;;384.60;2329.60;;;;;;5047369;28;20025;-63
2023/11/05 03:03:11;;;;;;;3.45;1.50;;;384.60;2329.60;;;;;;5049133;28;20033;-65
2023/11/05 03:05:41;;;;;;;4.35;1.80;;;384.70;2329.60;;;;;;5040773;28;20104;-64
2023/11/05 03:08:07;;;;;;;4.32;1.50;;;384.70;2329.60;;;;;;5029052;28;20021;-64
2023/11/05 03:10:33;;;;;;;4.97;1.40;;;384.80;2329.60;;;;;;5050490;28;20151;-65
2023/11/05 03:12:58;;;;;;;15.85;8.45;;;384.90;2329.60;;;;;;5050625;28;20360;-64
2023/11/05 03:15:24;;;;;;;7.95;5.03;;;384.90;2329.60;;;;;;5050661;28;20102;-65
2023/11/05 03:17:50;;;;;;;6.88;4.30;;;384.90;2304.00;;;;;;5050933;28;20108;-64
2023/11/05 03:20:16;;;;;;;9.90;4.50;;;409.60;2329.60;;;;;;5050510;28;20035;-64
2023/11/05 03:22:41;;;;;;;3.80;2.33;;;384.90;2329.60;;;;;;5050634;28;20111;-66
2023/11/05 03:25:10;;;;;;;3.58;2.15;;;384.80;2329.60;;;;;;5044890;28;20045;-64
2023/11/05 03:27:36;;;;;;;6.95;1.50;;;384.90;2329.60;;;;;;5043136;28;20025;-64
2023/11/05 03:30:03;;;;;;;2.85;1.15;;;384.90;2329.60;;;;;;5049734;28;20028;-67
2023/11/05 03:32:29;;;;;;;3.30;1.40;;;384.90;2329.60;;;;;;5043431;28;20051;-64
2023/11/05 03:34:55;;;;;;;4.35;1.30;;;384.90;2329.60;;;;;;5049683;28;20028;-64
2023/11/05 03:37:20;;;;;;;7.07;3.22;;;409.60;2355.20;;;;;;5050210;28;20029;-65
2023/11/05 03:39:48;;;;;;;2.28;0.88;;;409.60;2355.20;;;;;;5036767;28;20031;-64
2023/11/05 03:42:14;;;;;;;3.00;1.30;;;409.70;2329.60;;;;;;5046886;28;20037;-64
2023/11/05 03:44:40;;;;;;;2.67;1.30;;;409.70;2304.00;;;;;;5027803;28;20026;-66
2023/11/05 03:47:06;;;;;;;2.70;1.45;;;409.70;2329.60;;;;;;5043293;28;20070;-65
2023/11/05 03:49:32;;;;;;;1.55;0.98;;;409.80;2304.00;;;;;;5048924;28;20025;-65
2023/11/05 03:51:58;;;;;;;2.33;1.00;;;409.80;2304.00;;;;;;5050123;28;20534;-65
2023/11/05 03:54:24;;;;;;;5.25;1.35;;;409.90;2278.40;;;;;;5049521;28;20036;-65
2023/11/05 03:56:50;;;;;;;3.40;1.13;;;409.90;2278.40;;;;;;5050156;28;20021;-64
2023/11/05 03:59:16;;;;;;;2.55;1.30;;;409.90;2304.00;;;;;;5023233;28;20382;-65
2023/11/05 04:01:41;;;;;;;2.55;1.00;;;409.90;2329.60;;;;;;5049981;28;20372;-65
2023/11/05 04:04:10;;;;;;;2.30;1.08;;;410.00;2278.40;;;;;;5049630;28;20104;-65
2023/11/05 04:06:36;;;;;;;2.90;0.95;;;410.00;2278.40;;;;;;5049269;28;20027;-66
2023/11/05 04:09:02;;;;;;;1.58;1.00;;;410.00;2278.40;;;;;;5050200;28;20108;-66
2023/11/05 04:11:28;;;;;;;2.28;0.80;;;409.90;2304.00;;;;;;5048514;28;20151;-65
2023/11/05 04:13:54;;;;;;;2.33;1.15;;;409.90;2278.40;;;;;;5028023;28;20037;-64
2023/11/05 04:16:19;;;;;;;4.65;1.52;;;409.80;2304.00;;;;;;5038874;28;20459;-65
2023/11/05 04:18:45;;;;;;;2.97;1.00;;;409.70;2278.40;;;;;;5049616;28;20025;-65
2023/11/05 04:21:11;;;;;;;3.35;1.85;;;409.70;2304.00;;;;;;5048703;28;20166;-67
2023/11/05 04:23:36;;;;;;;4.03;1.30;;;409.70;2304.00;;;;;;5049536;28;20032;-65
2023/11/05 04:26:05;;;;;;;1.98;1.02;;;409.60;2329.60;;;;;;5049502;28;20017;-65
2023/11/05 04:28:31;;;;;;;2.92;1.35;;;384.90;2304.00;;;;;;5023338;28;20052;-66
2023/11/05 04:30:57;;;;;;;4.15;1.10;;;409.60;2329.60;;;;;;5048807;28;20067;-66
2023/11/05 04:33:22;;;;;;;1.48;0.90;;;384.90;2304.00;;;;;;5049083;28;20086;-66
2023/11/05 04:35:48;;;;;;;2.17;1.10;;;384.90;2304.00;;;;;;5049573;28;20032;-65
2023/11/05 04:38:14;;;;;;;2.42;1.02;;;409.70;2304.00;;;;;;5049636;28;20039;-70
2023/11/05 04:40:39;;;;;;;4.68;1.75;;;409.70;2329.60;;;;;;5051481;28;20090;-69
2023/11/05 04:43:05;;;;;;;2.72;1.40;;;409.70;2278.40;;;;;;5050892;28;20351;-74
2023/11/05 04:45:34;;;;;;;3.63;1.45;;;409.70;2304.00;;;;;;5037747;28;20063;-67
2023/11/05 04:48:03;;;;;;;2.35;1.10;;;409.70;2278.40;;;;;;5025909;28;20428;-66
2023/11/05 04:50:28;;;;;;;2.85;1.40;;;409.80;2278.40;;;;;;5031351;28;20041;-66
2023/11/05 04:52:54;;;;;;;4.20;1.73;;;409.90;2304.00;;;;;;5041651;28;20029;-66
2023/11/05 04:55:20;;;;;;;2.33;1.05;;;409.90;2304.00;;;;;;5049521;28;20107;-65
2023/11/05 04:57:46;;;;;;;3.65;1.35;;;410.00;2278.40;;;;;;5049477;28;20467;-66
2023/11/05 05:00:13;;;;;;;12.27;7.72;;;410.20;2278.40;;;;;;5033512;28;20044;-67
2023/11/05 05:02:39;;;;;;;2.33;1.15;;;410.20;2278.40;;;;;;5029249;28;20380;-66
2023/11/05 05:05:05;;;;;;;3.15;1.30;;;410.20;2278.40;;;;;;5029281;28;20026;-65
2023/11/05 05:07:31;;;;;;;1.27;0.95;;;410.20;2304.00;;;;;;5032897;28;20036;-64
2023/11/05 05:09:56;;;;;;;4.40;1.00;;;410.20;2304.00;;;;;;5049037;28;20033;-64
2023/11/05 05:12:23;;;;;;;1.48;0.90;;;410.30;2304.00;;;;;;5048922;28;20024;-64
2023/11/05 05:14:49;;;;;;;2.60;1.02;;;410.30;2278.40;;;;;;5048743;28;20072;-64
2023/11/05 05:17:18;;;;;;;1.73;1.27;;;410.30;2304.00;;;;;;5048825;28;20020;-66
2023/11/05 05:19:47;;;;;;;1.77;1.00;;;410.40;2278.40;;;;;;5049272;28;20120;-65
2023/11/05 05:22:13;;;;;;;2.10;1.00;;;410.40;2304.00;;;;;;5048109;28;20052;-65
2023/11/05 05:24:40;;;;;;;2.80;1.67;;;410.40;2304.00;;;;;;5047729;28;20022;-65
2023/11/05 05:27:06;;;;;;;3.28;2.00;;;410.30;2304.00;;;;;;5043406;28;20387;-64
2023/11/05 05:29:31;;;;;;;4.75;2.53;;;410.40;2304.00;;;;;;5032631;28;20032;-65
2023/11/05 05:31:57;;;;;;;5.30;2.60;;;410.40;2278.40;;;;;;5048906;28;20032;-64
2023/11/05 05:34:23;;;;;;;4.22;2.50;;;410.50;2278.40;;;;;;5048186;28;20490;-64
2023/11/05 05:36:49;;;;;;;4.10;1.23;;;410.50;2278.40;;;;;;5049122;28;20025;-64
2023/11/05 05:39:14;;;;;;;4.30;1.80;;;435.20;2304.00;;;;;;5048437;28;20151;-65
2023/11/05 05:41:40;;;;;;;5.07;1.35;;;435.20;2304.00;;;;;;5049047;28;20029;-65
2023/11/05 05:44:06;;;;;;;8.23;3.30;;;435.30;2304.00;;;;;;5047905;28;20439;-64
2023/11/05 05:46:31;;;;;;;5.13;2.42;;;435.20;2304.00;;;;;;5048640;28;20037;-65
2023/11/05 05:48:57;;;;;;;2.63;1.45;;;435.30;2304.00;;;;;;5048863;28;20112;-64
2023/11/05 05:51:23;;;;;;;6.38;2.72;;;435.30;2304.00;;;;;;5048674;28;20017;-64
2023/11/05 05:53:49;;;;;;;4.53;3.60;;;435.40;2304.00;;;;;;5048451;28;20036;-64
2023/11/05 05:56:15;;;;;;;1.83;1.10;;;435.50;2278.40;;;;;;5048596;28;20025;-64
2023/11/05 05:58:42;;;;;;;3.13;2.17;;;435.50;2329.60;;;;;;5043010;28;20053;-64
2023/11/05 06:01:08;;;;;;;4.82;3.95;;;435.50;2329.60;;;;;;5021133;28;20065;-65
2023/11/05 06:03:34;;;;;;;2.85;2.00;;;435.60;2304.00;;;;;;5042441;28;20032;-65
2023/11/05 06:06:00;;;;;;;3.75;2.72;;;435.60;2329.60;;;;;;5048753;28;20029;-64
2023/11/05 06:08:26;;;;;;;2.03;1.30;;;435.60;2329.60;;;;;;5048302;28;20036;-64
2023/11/05 06:10:51;;;;;;;5.18;1.95;;;435.70;2329.60;;;;;;5048519;28;20079;-66
2023/11/05 06:13:20;;;;;;;1.55;1.10;;;435.80;2278.40;;;;;;5051159;28;20037;-65
2023/11/05 06:15:46;;;;;;;2.58;1.40;;;436.00;2278.40;;;;;;5051814;28;20033;-65
2023/11/05 06:18:12;;;;;;;2.88;1.48;;;436.10;2278.40;;;;;;5051849;28;20075;-65
2023/11/05 06:20:38;;;;;;;2.22;1.27;;;460.80;2304.00;;;;;;5051830;28;20491;-65
2023/11/05 06:23:04;;;;;;;0.82;0.52;;;460.80;2304.00;;;;;;5051904;28;20043;-65
2023/11/05 06:25:30;;;;;;;1.70;0.93;;;460.80;2304.00;;;;;;5051566;28;20021;-65
2023/11/05 06:27:56;;;;;;;1.92;0.90;;;460.80;2278.40;;;;;;5051368;28;20021;-65
2023/11/05 06:30:22;;;;;;;2.05;1.70;;;460.80;2278.40;;;;;;5051232;28;20074;-67
2023/11/05 06:32:47;;;;;;;2.17;1.20;;;436.10;2252.80;;;;;;5051629;28;20167;-65
2023/11/05 06:35:13;;;;;;;3.78;2.28;;;460.80;2304.00;;;;;;5050177;28;20386;-66
2023/11/05 06:37:40;;;;;;;3.15;1.10;;;460.80;2252.80;;;;;;5035034;28;20499;-65
2023/11/05 06:40:07;;;;;;;2.25;1.00;;;461.00;2252.80;;;;;;5051560;28;20029;-66
2023/11/05 06:42:33;;;;;;;44.72;26.88;;;461.10;2252.80;;;;;;5051108;28;20104;-65
2023/11/05 06:44:58;;;;;;;4.55;2.40;;;461.20;2227.20;;;;;;5051123;28;20525;-65
2023/11/05 06:47:24;;;;;;;2.45;1.33;;;461.30;2201.60;;;;;;5051045;28;20030;-65
2023/11/05 06:49:50;;;;;;;7.80;4.28;;;461.30;2252.80;;;;;;5051383;28;20017;-65
2023/11/05 06:52:16;;;;;;;5.97;3.78;;;461.50;2201.60;;;;;;5051191;28;20065;-65
2023/11/05 06:54:41;;;;;;;3.55;1.95;;;461.60;2176.00;;;;;;5049633;28;20123;-67
2023/11/05 06:57:07;;;;;;;6.72;3.33;;;486.40;2150.40;;;;;;5051268;28;20032;-64
2023/11/05 06:59:33;;;;;;;8.15;4.47;;;486.40;2176.00;;;;;;5050703;28;20037;-64
2023/11/05 07:01:59;;;;;;;7.65;3.40;;;486.40;2150.40;;;;;;5050460;28;20057;-63
2023/11/05 07:04:25;;;;;;;4.03;2.05;;;486.50;2176.00;;;;;;5051292;28;20091;-64
2023/11/05 07:06:50;;;;;;;5.13;1.80;;;486.50;2176.00;;;;;;5051279;28;20024;-64
2023/11/05 07:09:16;;;;;;;2.80;1.55;;;486.50;2176.00;;;;;;5027754;28;20532;-64
2023/11/05 07:11:42;;;;;;;5.97;1.33;;;486.50;2176.00;;;;;;5042937;28;20072;-64
2023/11/05 07:14:09;;;;;;;2.55;1.35;;;486.50;2201.60;;;;;;5042335;28;20040;-64
2023/11/05 07:16:35;;;;;;;4.07;1.52;;;486.50;2201.60;;;;;;5047276;28;20401;-64
2023/11/05 07:19:01;;;;;;;5.90;1.80;;;486.40;2201.60;;;;;;5051268;28;20502;-64
2023/11/05 07:21:27;;;;;;;4.82;1.70;;;486.40;2201.60;;;;;;5050901;28;20067;-65
2023/11/05 07:23:52;;;;;;;2.17;1.58;;;486.40;2227.20;;;;;;5050313;28;20479;-65
2023/11/05 07:26:18;;;;;;;3.75;1.00;;;461.70;2227.20;;;;;;5050937;28;20032;-65
2023/11/05 07:28:44;;;;;;;11.23;10.10;;;461.70;2252.80;;;;;;5051380;28;20036;-64
2023/11/05 07:31:19;;;;;;;2.45;1.48;;;461.60;2252.80;;;;;;5050207;28;20033;-64
2023/11/05 07:33:45;;;;;;;2.60;1.33;;;461.70;2252.80;;;;;;5050891;28;20069;-65
2023/11/05 07:36:11;;;;;;;3.40;2.20;;;461.60;2252.80;;;;;;5051030;28;20025;-64
2023/11/05 07:38:38;;;;;;;2.33;1.33;;;461.70;2227.20;;;;;;5051215;28;20025;-64
2023/11/05 07:41:05;;;;;;;3.72;1.40;;;461.70;2252.80;;;;;;5045760;28;20392;-65
2023/11/05 07:43:31;;;;;;;3.28;1.33;;;486.40;2227.20;;;;;;5031134;28;20449;-65
2023/11/05 07:45:57;;;;;;;2.00;1.30;;;486.40;2227.20;;;;;;5047825;28;20048;-64
2023/11/05 07:48:23;;;;;;;3.75;1.75;;;486.60;2201.60;;;;;;5050646;28;20086;-64
2023/11/05 07:50:50;;;;;;;6.20;2.92;;;486.70;2201.60;;;;;;5043410;28;20386;-64
2023/11/05 07:53:17;;;;;;;10.65;6.38;;;486.70;2201.60;;;;;;5044357;28;20104;-65
2023/11/05 07:55:43;;;;;;;9.27;5.78;;;486.80;2201.60;;;;;;5050466;28;20056;-66
2023/11/05 07:58:09;;;;;;;3.70;2.38;;;486.80;2201.60;;;;;;5050510;28;20025;-65
2023/11/05 08:00:34;;;;;;;4.53;1.83;;;486.90;2176.00;;;;;;5046887;28;20033;-64
2023/11/05 08:03:02;;;;;;;6.63;4.55;;;486.90;2176.00;;;;;;5030583;28;20360;-66
2023/11/05 08:05:28;;;;;;;3.75;1.88;;;487.00;2176.00;;;;;;5030624;28;20028;-63
2023/11/05 08:07:54;;;;;;;5.53;2.35;;;487.10;2176.00;;;;;;5030643;28;20467;-64
2023/11/05 08:10:20;;;;;;;7.53;4.90;;;487.10;2176.00;;;;;;5030593;28;20657;-66
2023/11/05 08:12:45;;;;;;;5.28;2.78;;;487.10;2176.00;;;;;;5038837;28;20033;-65
2023/11/05 08:15:11;;;;;;;3.90;2.00;;;487.10;2176.00;;;;;;5039070;28;20502;-66
2023/11/05 08:17:37;;;;;;;5.18;2.05;;;487.30;2150.40;;;;;;5028984;28;20159;-66
2023/11/05 08:20:04;;;;;;;10.15;5.40;;;512.10;2176.00;;;;;;5046307;28;20025;-65
2023/11/05 08:22:30;;;;;;;8.77;3.75;;;512.30;2124.80;;;;;;5050237;28;20045;-66
2023/11/05 08:24:56;;;;;;;6.07;3.53;;;512.70;2099.20;;;;;;5049571;28;20379;-66
2023/11/05 08:27:21;;;;;;;4.13;1.50;;;512.90;2073.60;;;;;;5050232;28;20029;-66
2023/11/05 08:29:47;;;;;;;2.97;1.45;;;538.10;2048.00;;;;;;5049759;28;20029;-65
2023/11/05 08:32:13;;;;;;;2.13;1.20;;;538.30;2048.00;;;;;;5049676;28;20051;-66
2023/11/05 08:34:40;;;;;;;3.65;1.60;;;538.20;2048.00;;;;;;5047595;28;20037;-65
2023/11/05 08:37:07;;;;;;;3.28;1.25;;;563.20;2048.00;;;;;;5041024;28;20057;-66
2023/11/05 08:39:33;;;;;;;1.25;0.95;;;563.90;1971.20;;;;;;5042599;28;20048;-66
2023/11/05 08:41:59;;;;;;;3.28;1.60;;;614.50;1894.40;;;;;;5030591;28;20064;-64
2023/11/05 08:44:24;;;;;;;2.55;1.73;;;640.50;1792.00;;;;;;5039394;28;20053;-67
2023/11/05 08:46:51;;;;;;;1.77;1.38;;;666.20;1715.20;;;;;;5029566;28;20468;-66
2023/11/05 08:49:17;;;;;;;2.78;1.73;;;716.80;1664.00;;;;;;5037933;28;20055;-67
2023/11/05 08:51:43;;;;;;;4.22;3.00;;;717.10;1638.40;;;;;;5029017;28;20030;-66
2023/11/05 08:54:09;;;;;;;3.15;2.17;;;717.50;1587.20;;;;;;5037686;28;20035;-68
2023/11/05 08:56:34;;;;;;;3.58;2.42;;;742.40;1561.60;;;;;;5049293;28;20021;-67
2023/11/05 08:59:02;;;;;;;2.67;1.85;;;743.10;1536.00;;;;;;5041045;28;20022;-68
2023/11/05 09:01:28;;;;;;;4.13;2.80;;;768.20;1459.20;;;;;;5035606;28;20112;-64
2023/11/05 09:03:54;;;;;;;3.05;2.00;;;768.80;1433.60;;;;;;5041763;28;20021;-65
2023/11/05 09:06:20;;;;;;;5.45;2.10;;;793.80;1433.60;;;;;;5041745;28;20555;-64
2023/11/05 09:08:46;;;;;;;4.28;2.22;;;794.20;1433.60;;;;;;5035475;28;20444;-64
2023/11/05 09:11:13;;;;;;;15.88;7.97;;;768.10;1484.80;;;;;;5033623;28;20033;-66
2023/11/05 09:13:39;;;;;;;6.63;4.40;;;742.80;1484.80;;;;;;5029557;28;20553;-66
2023/11/05 09:16:10;;;;;;;6.70;5.47;;;692.10;1510.40;;;;;;5036833;28;20112;-65
2023/11/05 09:18:37;;;;;;;2.78;1.98;;;691.60;1561.60;;;;;;5038375;28;20037;-66
2023/11/05 09:21:05;;;;;;;10.02;5.30;;;666.30;1638.40;;;;;;5027996;28;20197;-64
2023/11/05 09:23:31;;;;;;;6.57;4.60;;;665.60;1638.40;;;;;;5043894;28;20079;-65
2023/11/05 09:25:58;;;;;;;12.85;8.95;;;640.60;1638.40;;;;;;5042201;28;20494;-65
2023/11/05 09:28:24;;;;;;;6.35;3.72;;;640.40;1664.00;;;;;;5029455;28;20111;-65
2023/11/05 09:34:15;;;;;;;2.30;1.90;;;615.30;1689.60;;;;;;5032410;28;20068;-63
2023/11/05 09:36:41;;;;;;;1.95;1.48;;;615.30;1740.80;;;;;;5032735;28;20029;-62
2023/11/05 09:39:07;;;;;;;3.47;1.52;;;615.10;1715.20;;;;;;5032634;28;20136;-63
2023/11/05 09:41:36;;;;;;;2.67;1.45;;;614.90;1740.80;;;;;;5032246;28;20026;-63
2023/11/05 09:44:03;;;;;;;5.63;2.08;;;614.90;1740.80;;;;;;5032280;28;20052;-63
2023/11/05 09:49:51;;;;;;;2.25;1.48;;;614.80;1766.40;;;;;;5036425;28;20040;-63
2023/11/05 09:52:17;;;;;;;9.05;4.50;;;614.60;1715.20;;;;;;5036107;28;20036;-63
2023/11/05 09:54:43;;;;;;;7.05;2.05;;;614.60;1715.20;;;;;;5036135;28;20542;-62
2023/11/05 09:57:09;;;;;;;7.25;4.55;;;614.60;1766.40;;;;;;5036208;28;20028;-63
2023/11/05 09:59:48;;;;;;;13.77;8.38;;;614.50;1766.40;;;;;;5041125;28;20092;-62
2023/11/05 10:02:14;;;;;;;11.68;7.93;;;614.50;1715.20;;;;;;5046726;28;20136;-64
2023/11/05 10:04:41;;;;;;;2.05;1.33;;;614.70;1715.20;;;;;;5032159;28;20033;-63
2023/11/05 10:07:07;;;;;;;29.23;20.63;;;614.80;1766.40;;;;;;5031915;28;20029;-63
2023/11/05 10:09:33;;;;;;;44.97;28.65;;;614.90;1715.20;;;;;;5031382;28;20037;-66
2023/11/05 10:11:59;;;;;;;9.73;6.72;;;614.90;1715.20;;;;;;5031747;28;20017;-65
2023/11/05 10:14:25;;;;;;;6.18;1.42;;;615.10;1689.60;;;;;;5039562;28;20025;-66
2023/11/05 10:16:53;;;;;;;2.60;1.40;;;615.10;1766.40;;;;;;5034438;28;20483;-68
2023/11/05 10:19:19;;;;;;;1.55;0.90;;;615.30;1715.20;;;;;;5051047;28;20043;-64
2023/11/05 10:21:45;;;;;;;5.90;4.05;;;640.00;1740.80;;;;;;5045016;28;20116;-66
2023/11/05 10:24:11;;;;;;;5.80;2.92;;;640.00;1715.20;;;;;;5032622;28;20107;-66
2023/11/05 10:26:37;;;;;;;6.90;4.38;;;615.30;1766.40;;;;;;5050345;28;20037;-64
2023/11/05 10:29:05;;;;;;;7.32;4.28;;;640.10;1740.80;;;;;;5051698;28;20025;-64
2023/11/05 10:31:31;;;;;;;3.63;1.90;;;640.20;1715.20;;;;;;5051422;28;20033;-64
2023/11/05 10:33:59;;;;;;;0.90;0.90;;;640.50;1715.20;;;;;;5051659;28;20120;-64
2023/11/05 10:36:25;;;;;;;2.03;0.90;;;640.60;1715.20;;;;;;5051437;28;20013;-65
2023/11/05 10:38:52;;;;;;;1.65;0.75;;;640.60;1689.60;;;;;;5038937;28;20087;-64
2023/11/05 10:41:18;;;;;;;1.90;0.80;;;640.50;1664.00;;;;;;5031856;28;20100;-64
2023/11/05 10:43:48;;;;;;;2.67;1.50;;;640.40;1689.60;;;;;;5044997;28;20017;-66
2023/11/05 10:46:19;;;;;;;14.82;9.32;;;640.20;1689.60;;;;;;5051728;28;20031;-66
2023/11/05 10:48:48;;;;;;;21.27;12.02;;;640.40;1689.60;;;;;;5050736;28;20167;-64
2023/11/05 10:51:16;;;;;;;17.52;7.72;;;640.40;1664.00;;;;;;5051265;28;20450;-65
2023/11/05 10:53:44;;;;;;;111.47;75.10;;;640.20;1689.60;;;;;;5042879;28;20049;-65
2023/11/05 10:56:44;;;;;;;5.72;3.20;;;640.30;1664.00;;;;;;5040719;28;20502;-64
2023/11/05 10:59:10;;;;;;;0.90;0.80;;;640.20;1664.00;;;;;;5022373;28;20029;-65
2023/11/05 11:01:37;;;;;;;12.98;10.15;;;640.00;1664.00;;;;;;5048381;28;20131;-67
2023/11/05 11:04:08;;;;;;;2.20;1.50;;;615.30;1664.00;;;;;;5048621;28;20047;-67
2023/11/05 11:06:33;;;;;;;2.40;1.55;;;615.30;1689.60;;;;;;5048600;28;20112;-65
2023/11/05 11:09:15;;;;;;;3.10;1.42;;;615.30;1664.00;;;;;;5049024;28;20124;-68
2023/11/05 11:11:41;;;;;;;8.38;4.57;;;640.00;1715.20;;;;;;5048507;28;20079;-64
2023/11/05 11:14:08;;;;;;;4.57;1.98;;;640.10;1664.00;;;;;;5048928;28;20043;-65
2023/11/05 11:16:37;;;;;;;1.70;1.00;;;640.10;1664.00;;;;;;5048267;28;20028;-65
2023/11/05 11:19:29;;;;;;;3.85;1.95;;;640.20;1689.60;;;;;;5027814;28;20034;-66
2023/11/05 11:21:57;;;;;;;1.55;1.27;;;640.30;1664.00;;;;;;5020833;28;20483;-64
2023/11/05 11:24:40;;;;;;;10.30;6.82;;;640.30;1664.00;;;;;;5048342;28;20039;-64
2023/11/05 11:27:09;;;;;;;3.38;0.68;;;640.30;1664.00;;;;;;5035228;28;20017;-63
2023/11/05 11:29:37;;;;;;;5.97;1.10;;;640.50;1664.00;;;;;;5040647;28;20106;-63
2023/11/05 11:32:03;;;;;;;3.90;1.70;;;640.50;1689.60;;;;;;5047748;28;20033;-64
2023/11/05 11:34:31;;;;;;;2.90;1.92;;;640.60;1664.00;;;;;;5038772;28;20151;-64
2023/11/05 11:36:58;;;;;;;1.42;0.95;;;640.70;1638.40;;;;;;5044660;28;20071;-63
2023/11/05 11:39:26;;;;;;;2.80;1.52;;;640.70;1638.40;;;;;;5034253;28;20481;-67
2023/11/05 11:41:51;;;;;;;1.17;1.02;;;665.60;1638.40;;;;;;5031702;28;20033;-64
2023/11/05 11:44:18;;;;;;;8.95;5.82;;;665.70;1664.00;;;;;;5050656;28;20021;-67
2023/11/05 11:46:44;;;;;;;6.90;2.55;;;640.90;1638.40;;;;;;5048695;28;20578;-63
2023/11/05 11:49:13;;;;;;;3.80;2.20;;;665.60;1689.60;;;;;;5043981;28;20303;-65
2023/11/05 11:51:39;;;;;;;1.10;1.00;;;665.70;1664.00;;;;;;5041475;28;20045;-63
2023/11/05 11:54:06;;;;;;;1.00;0.90;;;665.70;1638.40;;;;;;5042167;28;20034;-63
2023/11/05 11:56:32;;;;;;;1.35;1.10;;;665.70;1664.00;;;;;;5029531;28;20034;-66
2023/11/05 11:59:05;;;;;;;1.48;0.98;;;665.70;1664.00;;;;;;5022710;28;20029;-64
2023/11/05 12:01:32;;;;;;;1.83;1.05;;;665.70;1664.00;;;;;;5024763;28;20052;-64
2023/11/05 12:03:58;;;;;;;4.90;3.05;;;665.70;1689.60;;;;;;5029888;28;20064;-65
2023/11/05 12:06:25;;;;;;;6.47;2.90;;;665.80;1638.40;;;;;;5029897;28;20383;-62
2023/11/05 12:08:52;;;;;;;2.10;1.20;;;666.00;1689.60;;;;;;5029950;28;20017;-62
2023/11/05 12:11:19;;;;;;;3.08;1.98;;;666.10;1664.00;;;;;;5031003;28;20120;-64
2023/11/05 12:13:46;;;;;;;2.25;1.27;;;666.00;1638.40;;;;;;5037699;28;20031;-61
2023/11/05 12:16:14;;;;;;;1.50;1.20;;;666.00;1664.00;;;;;;5031349;28;20022;-65
2023/11/05 12:18:42;;;;;;;4.03;1.60;;;665.90;1689.60;;;;;;5028793;28;20036;-63